createdAt,value
2019-01-21T00:00:34.225Z,-2.23
2019-01-21T00:03:00.784Z,-2.31
2019-01-21T00:05:27.265Z,-2.27
2019-01-21T00:07:54.035Z,-2.29
2019-01-21T00:10:20.279Z,-2.43
2019-01-21T00:12:46.505Z,-2.49
2019-01-21T00:15:13.140Z,-2.33
2019-01-21T00:17:39.438Z,-2.26
2019-01-21T00:20:06.383Z,-2.32
2019-01-21T00:22:32.949Z,-2.23
2019-01-21T00:24:59.286Z,-2.23
2019-01-21T00:27:25.524Z,-2.30
2019-01-21T00:29:51.803Z,-2.17
2019-01-21T00:32:18.187Z,-2.32
2019-01-21T00:34:44.584Z,-2.48
2019-01-21T00:37:11.071Z,-2.47
2019-01-21T00:39:37.586Z,-2.46
2019-01-21T00:42:04.276Z,-2.57
2019-01-21T00:44:30.563Z,-2.54
2019-01-21T00:46:57.061Z,-2.60
2019-01-21T00:49:23.392Z,-2.43
2019-01-21T00:51:49.766Z,-2.52
2019-01-21T00:54:16.164Z,-2.51
2019-01-21T00:56:42.556Z,-2.57
2019-01-21T00:59:09.081Z,-2.54
2019-01-21T01:01:35.460Z,-2.66
2019-01-21T01:04:01.807Z,-2.52
2019-01-21T01:06:28.055Z,-2.50
2019-01-21T01:08:54.321Z,-2.59
2019-01-21T01:11:25.693Z,-2.53
2019-01-21T01:13:52.761Z,-2.49
2019-01-21T01:16:19.138Z,-2.53
2019-01-21T01:18:45.407Z,-2.56
2019-01-21T01:21:11.625Z,-2.50
2019-01-21T01:23:38.341Z,-2.63
2019-01-21T01:29:27.933Z,-2.64
2019-01-21T01:31:54.303Z,-2.74
2019-01-21T01:34:20.564Z,-2.71
2019-01-21T01:36:46.765Z,-2.72
2019-01-21T01:39:13.125Z,-2.74
2019-01-21T01:41:39.379Z,-2.73
2019-01-21T01:44:07.053Z,-2.72
2019-01-21T01:46:33.632Z,-2.68
2019-01-21T01:49:00.186Z,-2.65
2019-01-21T01:51:26.386Z,-2.81
2019-01-21T01:53:52.677Z,-2.75
2019-01-21T01:56:18.877Z,-2.80
2019-01-21T01:58:45.294Z,-2.95
2019-01-21T02:01:11.691Z,-2.98
2019-01-21T02:03:38.316Z,-2.79
2019-01-21T02:06:04.666Z,-2.90
2019-01-21T02:08:31.107Z,-2.88
2019-01-21T02:10:57.383Z,-2.82
2019-01-21T02:13:23.708Z,-3.08
2019-01-21T02:15:50.018Z,-3.18
2019-01-21T02:18:16.380Z,-3.12
2019-01-21T02:20:43.584Z,-3.16
2019-01-21T02:23:13.851Z,-3.13
2019-01-21T02:25:44.612Z,-3.15
2019-01-21T02:28:17.462Z,-3.17
2019-01-21T02:31:05.972Z,-3.02
2019-01-21T02:33:47.815Z,-2.98
2019-01-21T02:36:26.780Z,-3.05
2019-01-21T02:39:18.136Z,-3.12
2019-01-21T02:41:45.760Z,-3.11
2019-01-21T02:44:40.038Z,-3.04
2019-01-21T02:47:10.192Z,-3.22
2019-01-21T02:50:01.385Z,-3.21
2019-01-21T02:52:40.638Z,-3.22
2019-01-21T02:55:16.910Z,-3.19
2019-01-21T02:58:12.617Z,-3.25
2019-01-21T03:00:45.553Z,-3.25
2019-01-21T03:03:24.674Z,-3.20
2019-01-21T03:06:00.887Z,-3.26
2019-01-21T03:08:46.245Z,-3.24
2019-01-21T03:11:28.378Z,-3.16
2019-01-21T03:14:07.121Z,-3.21
2019-01-21T03:16:57.124Z,-3.22
2019-01-21T03:19:32.750Z,-3.24
2019-01-21T03:22:02.931Z,-3.25
2019-01-21T03:24:54.356Z,-3.24
2019-01-21T03:27:43.665Z,-3.38
2019-01-21T03:30:34.931Z,-3.37
2019-01-21T03:33:41.084Z,-3.47
2019-01-21T03:36:31.962Z,-3.37
2019-01-21T03:39:10.804Z,-3.45
2019-01-21T03:41:46.846Z,-3.47
2019-01-21T03:44:16.928Z,-3.45
2019-01-21T03:46:53.475Z,-3.57
2019-01-21T03:49:23.573Z,-3.55
2019-01-21T03:52:19.766Z,-3.53
2019-01-21T03:54:47.301Z,-3.64
2019-01-21T03:57:17.073Z,-3.58
2019-01-21T04:00:08.173Z,-3.46
2019-01-21T04:02:57.884Z,-3.47
2019-01-21T04:05:28.006Z,-3.68
2019-01-21T04:08:07.424Z,-3.57
2019-01-21T04:10:49.764Z,-3.46
2019-01-21T04:13:35.227Z,-3.57
2019-01-21T04:16:05.587Z,-3.67
2019-01-21T04:18:42.033Z,-3.69
2019-01-21T04:21:24.069Z,-3.62
2019-01-21T04:24:02.904Z,-3.62
2019-01-21T04:26:45.052Z,-3.66
2019-01-21T04:29:26.757Z,-3.57
2019-01-21T04:32:06.605Z,-3.64
2019-01-21T04:34:43.053Z,-3.74
2019-01-21T04:37:16.089Z,-3.60
2019-01-21T04:40:01.459Z,-3.67
2019-01-21T04:42:40.391Z,-3.80
2019-01-21T04:45:25.354Z,-3.81
2019-01-21T04:51:33.790Z,-3.97
2019-01-21T04:54:23.787Z,-3.89
2019-01-21T04:57:19.881Z,-3.89
2019-01-21T05:00:06.477Z,-3.83
2019-01-21T05:03:03.768Z,-3.92
2019-01-21T05:05:36.582Z,-3.90
2019-01-21T05:08:15.278Z,-3.95
2019-01-21T05:11:08.406Z,-3.94
2019-01-21T05:13:50.440Z,-3.96
2019-01-21T05:16:32.564Z,-4.02
2019-01-21T05:19:08.393Z,-3.90
2019-01-21T05:22:10.666Z,-4.05
2019-01-21T05:24:43.828Z,-3.99
2019-01-21T05:27:33.227Z,-4.05
2019-01-21T05:30:12.449Z,-4.01
2019-01-21T05:32:42.612Z,-4.01
2019-01-21T05:35:34.024Z,-3.95
2019-01-21T05:38:22.059Z,-4.10
2019-01-21T05:41:12.339Z,-4.19
2019-01-21T05:44:00.511Z,-4.13
2019-01-21T05:46:50.142Z,-4.17
2019-01-21T05:49:29.258Z,-4.24
2019-01-21T05:52:19.153Z,-4.15
2019-01-21T05:55:10.265Z,-4.26
2019-01-21T05:57:52.509Z,-4.21
2019-01-21T06:00:39.516Z,-4.04
2019-01-21T06:03:12.772Z,-4.19
2019-01-21T06:05:51.644Z,-4.23
2019-01-21T06:08:42.863Z,-4.22
2019-01-21T06:11:28.220Z,-4.20
2019-01-21T06:14:26.011Z,-4.28
2019-01-21T06:16:56.112Z,-4.25
2019-01-21T06:19:35.078Z,-4.34
2019-01-21T06:22:13.998Z,-4.31
2019-01-21T06:25:05.111Z,-4.29
2019-01-21T06:27:53.792Z,-4.32
2019-01-21T06:30:36.137Z,-4.24
2019-01-21T06:33:18.073Z,-4.35
2019-01-21T06:38:58.814Z,-4.24
2019-01-21T06:44:57.072Z,-4.28
2019-01-21T06:47:27.126Z,-4.30
2019-01-21T06:50:08.951Z,-4.35
2019-01-21T06:52:59.720Z,-4.30
2019-01-21T06:55:29.952Z,-4.30
2019-01-21T06:58:24.312Z,-4.27
2019-01-21T07:01:23.684Z,-4.40
2019-01-21T07:04:09.621Z,-4.23
2019-01-21T07:09:43.188Z,-4.10
2019-01-21T07:12:33.310Z,-3.74
2019-01-21T07:15:12.691Z,-3.92
2019-01-21T07:18:04.196Z,-3.79
2019-01-21T07:20:40.144Z,-3.81
2019-01-21T07:23:15.924Z,-4.13
2019-01-21T07:25:45.983Z,-3.94
2019-01-21T07:28:31.188Z,-4.08
2019-01-21T07:31:04.272Z,-4.01
2019-01-21T07:33:49.257Z,-3.95
2019-01-21T07:36:54.451Z,-4.09
2019-01-21T07:39:33.774Z,-3.94
2019-01-21T07:42:14.156Z,-3.99
2019-01-21T07:44:50.052Z,-3.95
2019-01-21T07:47:41.483Z,-4.06
2019-01-21T07:50:17.718Z,-3.90
2019-01-21T07:53:07.472Z,-3.92
2019-01-21T07:55:52.883Z,-3.95
2019-01-21T07:58:38.091Z,-3.93
2019-01-21T08:01:08.194Z,-3.89
2019-01-21T08:04:01.175Z,-3.82
2019-01-21T08:06:49.892Z,-3.72
2019-01-21T08:09:26.078Z,-3.67
2019-01-21T08:12:30.003Z,-3.63
2019-01-21T08:15:06.156Z,-3.60
2019-01-21T08:18:13.742Z,-3.48
2019-01-21T08:20:46.529Z,-3.43
2019-01-21T08:23:31.692Z,-3.37
2019-01-21T08:26:23.089Z,-3.37
2019-01-21T08:29:02.233Z,-3.47
2019-01-21T08:31:37.982Z,-3.47
2019-01-21T08:34:28.078Z,-3.45
2019-01-21T08:37:16.300Z,-3.42
2019-01-21T08:39:52.563Z,-3.39
2019-01-21T08:42:40.195Z,-3.31
2019-01-21T08:45:30.174Z,-3.25
2019-01-21T08:48:08.952Z,-3.27
2019-01-21T08:51:00.748Z,-3.17
2019-01-21T08:53:33.889Z,-2.80
2019-01-21T08:56:08.272Z,-2.90
2019-01-21T08:58:45.679Z,-2.98
2019-01-21T09:01:25.198Z,-2.97
2019-01-21T09:04:06.683Z,-2.93
2019-01-21T09:07:00.505Z,-2.80
2019-01-21T09:09:38.990Z,-2.86
2019-01-21T09:12:21.753Z,-2.77
2019-01-21T09:15:09.379Z,-2.64
2019-01-21T09:17:42.269Z,-2.57
2019-01-21T09:20:46.143Z,-2.54
2019-01-21T09:23:38.303Z,-2.46
2019-01-21T09:26:28.192Z,-2.37
2019-01-21T09:29:16.856Z,-2.42
2019-01-21T09:31:58.989Z,-2.20
2019-01-21T09:34:56.717Z,-2.22
2019-01-21T09:37:41.512Z,-2.28
2019-01-21T09:40:17.579Z,-2.33
2019-01-21T09:43:04.189Z,-2.24
2019-01-21T09:45:53.239Z,-2.21
2019-01-21T09:48:20.139Z,-2.22
2019-01-21T09:50:48.465Z,-2.06
2019-01-21T09:53:15.726Z,-2.01
2019-01-21T09:55:46.560Z,-2.02
2019-01-21T09:58:12.876Z,-1.89
2019-01-21T10:00:39.237Z,-1.87
2019-01-21T10:03:06.840Z,-1.83
2019-01-21T10:05:35.673Z,-1.71
2019-01-21T10:08:10.546Z,-1.98
2019-01-21T10:10:40.719Z,-1.86
2019-01-21T10:13:29.272Z,-1.85
2019-01-21T10:16:08.358Z,-1.84
2019-01-21T10:19:01.942Z,-1.64
2019-01-21T10:21:43.757Z,-1.73
2019-01-21T10:24:37.638Z,-1.99
2019-01-21T10:27:07.741Z,-1.89
2019-01-21T10:30:04.712Z,-1.83
2019-01-21T10:32:50.805Z,-1.83
2019-01-21T10:35:44.822Z,-1.97
2019-01-21T10:38:42.155Z,-1.85
2019-01-21T10:41:12.457Z,-1.98
2019-01-21T10:43:59.417Z,-1.99
2019-01-21T10:46:32.740Z,-1.92
2019-01-21T10:52:41.807Z,-1.74
2019-01-21T10:55:20.928Z,-1.70
2019-01-21T10:57:56.958Z,-1.69
2019-01-21T11:00:37.345Z,-1.64
2019-01-21T11:03:19.745Z,-1.55
2019-01-21T11:05:52.708Z,-1.53
2019-01-21T11:08:34.581Z,-1.45
2019-01-21T11:11:27.557Z,-1.46
2019-01-21T11:14:07.042Z,-1.42
2019-01-21T11:16:53.576Z,-1.52
2019-01-21T11:19:33.245Z,-1.50
2019-01-21T11:22:03.227Z,-1.58
2019-01-21T11:24:39.672Z,-1.59
2019-01-21T11:27:27.536Z,-1.53
2019-01-21T11:30:17.608Z,-1.53
2019-01-21T11:32:54.204Z,-1.56
2019-01-21T11:35:49.917Z,-1.59
2019-01-21T11:38:41.429Z,-1.58
2019-01-21T11:41:23.782Z,-1.70
2019-01-21T11:44:03.143Z,-1.68
2019-01-21T11:46:33.518Z,-1.64
2019-01-21T11:49:06.795Z,-1.64
2019-01-21T11:51:51.430Z,-1.75
2019-01-21T11:54:21.514Z,-1.67
2019-01-21T11:56:51.907Z,-1.60
2019-01-21T11:59:47.346Z,-1.59
2019-01-21T12:02:21.533Z,-1.52
2019-01-21T12:04:54.633Z,-1.43
2019-01-21T12:07:56.228Z,-1.60
2019-01-21T12:10:35.639Z,-1.65
2019-01-21T12:13:23.951Z,-1.53
2019-01-21T12:16:02.510Z,-1.63
2019-01-21T12:18:38.701Z,-1.59
2019-01-21T12:21:14.846Z,-1.64
2019-01-21T12:23:44.849Z,-1.65
2019-01-21T12:26:24.132Z,-1.59
2019-01-21T12:29:05.662Z,-1.43
2019-01-21T12:31:38.817Z,-1.53
2019-01-21T12:34:17.934Z,-1.31
2019-01-21T12:36:53.533Z,-1.39
2019-01-21T12:39:26.514Z,-1.33
2019-01-21T12:42:14.793Z,-1.05
2019-01-21T12:45:09.773Z,-1.09
2019-01-21T12:48:01.047Z,-0.88
2019-01-21T12:50:46.355Z,-0.89
2019-01-21T12:53:28.244Z,-0.62
2019-01-21T12:56:25.611Z,-0.66
2019-01-21T12:59:04.940Z,-0.54
2019-01-21T13:01:35.144Z,-0.64
2019-01-21T13:04:08.223Z,-0.65
2019-01-21T13:07:11.365Z,-0.54
2019-01-21T13:10:02.415Z,-0.46
2019-01-21T13:12:50.622Z,-0.31
2019-01-21T13:15:37.460Z,-0.29
2019-01-21T13:18:13.940Z,-0.40
2019-01-21T13:20:46.767Z,-0.65
2019-01-21T13:23:16.883Z,-0.57
2019-01-21T13:25:49.670Z,-0.84
2019-01-21T13:28:54.480Z,-0.70
2019-01-21T13:31:35.287Z,-0.52
2019-01-21T13:34:23.529Z,-0.45
2019-01-21T13:36:53.556Z,-0.52
2019-01-21T13:39:49.749Z,-0.49
2019-01-21T13:42:19.742Z,-0.53
2019-01-21T13:44:49.756Z,-0.53
2019-01-21T13:47:41.087Z,-0.58
2019-01-21T13:50:16.712Z,-0.55
2019-01-21T13:52:58.750Z,-0.72
2019-01-21T13:55:28.915Z,-0.96
2019-01-21T13:58:14.065Z,-0.91
2019-01-21T14:01:05.564Z,-0.54
2019-01-21T14:03:38.712Z,-0.36
2019-01-21T14:06:23.477Z,-0.53
2019-01-21T14:09:08.744Z,-0.59
2019-01-21T14:11:38.779Z,-0.70
2019-01-21T14:14:08.843Z,-0.59
2019-01-21T14:16:56.675Z,-0.41
2019-01-21T14:19:26.754Z,-0.36
2019-01-21T14:21:57.036Z,-0.49
2019-01-21T14:24:27.247Z,-0.49
2019-01-21T14:27:00.209Z,-0.46
2019-01-21T14:29:33.116Z,-0.61
2019-01-21T14:32:11.980Z,-0.45
2019-01-21T14:34:42.066Z,-0.40
2019-01-21T14:37:12.296Z,-0.31
2019-01-21T14:39:48.384Z,-0.60
2019-01-21T14:42:18.494Z,-0.51
2019-01-21T14:45:07.142Z,-0.38
2019-01-21T14:48:06.330Z,-0.41
2019-01-21T14:50:50.451Z,-0.55
2019-01-21T14:53:20.257Z,-0.50
2019-01-21T14:56:02.597Z,-0.57
2019-01-21T14:58:38.513Z,-0.57
2019-01-21T15:01:11.510Z,-0.56
2019-01-21T15:03:50.797Z,-0.46
2019-01-21T15:06:21.180Z,-0.59
2019-01-21T15:08:57.344Z,-0.54
2019-01-21T15:11:30.461Z,-0.66
2019-01-21T15:14:00.957Z,-0.76
2019-01-21T15:16:39.787Z,-0.72
2019-01-21T15:19:09.855Z,-0.71
2019-01-21T15:21:55.225Z,-0.62
2019-01-21T15:24:28.673Z,-0.59
2019-01-21T15:27:01.651Z,-0.66
2019-01-21T15:29:54.591Z,-0.67
2019-01-21T15:32:41.550Z,-0.71
2019-01-21T15:35:32.453Z,-0.64
2019-01-21T15:38:06.960Z,-0.53
2019-01-21T15:40:45.827Z,-0.55
2019-01-21T15:43:15.856Z,-0.50
2019-01-21T15:45:54.255Z,-0.68
2019-01-21T15:48:30.347Z,-0.52
2019-01-21T15:51:09.543Z,-0.57
2019-01-21T15:53:42.358Z,-0.49
2019-01-21T15:59:59.324Z,-0.62
2019-01-21T16:02:31.875Z,-0.52
2019-01-21T16:05:07.973Z,-0.52
2019-01-21T16:07:37.924Z,-0.35
2019-01-21T16:10:19.841Z,-0.23
2019-01-21T16:12:58.647Z,-0.37
2019-01-21T16:15:46.784Z,-0.27
2019-01-21T16:18:19.551Z,-0.40
2019-01-21T16:21:01.514Z,-0.59
2019-01-21T16:23:40.309Z,-0.40
2019-01-21T16:26:06.644Z,-0.59
2019-01-21T16:28:36.709Z,-0.56
2019-01-21T16:31:09.637Z,-0.58
2019-01-21T16:34:06.803Z,-0.55
2019-01-21T16:36:53.790Z,-0.43
2019-01-21T16:39:35.989Z,-0.49
2019-01-21T16:42:14.319Z,-0.46
2019-01-21T16:44:42.569Z,-0.58
2019-01-21T16:47:08.739Z,-0.32
2019-01-21T16:49:35.378Z,-0.21
2019-01-21T16:52:01.676Z,-0.41
2019-01-21T16:54:28.234Z,-0.41
2019-01-21T16:56:54.647Z,-0.36
2019-01-21T16:59:21.736Z,-0.39
2019-01-21T17:01:48.831Z,-0.40
2019-01-21T17:04:15.678Z,-0.25
2019-01-21T17:06:42.146Z,-0.28
2019-01-21T17:09:09.024Z,-0.21
2019-01-21T17:11:35.617Z,-0.34
2019-01-21T17:14:01.855Z,-0.34
2019-01-21T17:16:28.013Z,-0.39
2019-01-21T17:18:54.174Z,-0.54
2019-01-21T17:21:21.314Z,-0.38
2019-01-21T17:23:48.480Z,-0.42
2019-01-21T17:26:14.711Z,-0.53
2019-01-21T17:28:40.941Z,-0.49
2019-01-21T17:31:27.231Z,-0.30
2019-01-21T17:33:58.278Z,-0.29
2019-01-21T17:39:25.362Z,-0.27
2019-01-21T17:41:51.834Z,-0.27
2019-01-21T17:47:52.828Z,-0.28
2019-01-21T17:50:19.283Z,-0.20
2019-01-21T17:56:09.363Z,-0.27
2019-01-21T17:58:35.734Z,-0.25
2019-01-21T18:01:02.056Z,-0.16
2019-01-21T18:06:39.343Z,-0.16
2019-01-21T18:09:06.974Z,-0.24
2019-01-21T18:11:33.294Z,-0.13
2019-01-21T18:17:24.029Z,-0.07
2019-01-21T18:19:50.625Z,-0.07
2019-01-21T18:22:17.085Z,0.01
2019-01-21T18:27:55.593Z,-0.01
2019-01-21T18:30:23.593Z,0.06
2019-01-21T18:32:50.660Z,-0.07
2019-01-21T18:38:40.757Z,-0.03
2019-01-21T18:41:07.485Z,-0.01
2019-01-21T18:43:35.271Z,-0.03
2019-01-21T18:46:01.854Z,-0.06
2019-01-21T18:48:28.421Z,-0.00
2019-01-21T18:50:55.068Z,-0.01
2019-01-21T18:53:21.816Z,0.05
2019-01-21T18:59:11.399Z,-0.02
2019-01-21T19:01:37.622Z,-0.05
2019-01-21T19:04:03.952Z,0.09
2019-01-21T19:06:40.621Z,-0.03
2019-01-21T19:09:07.320Z,-0.03
2019-01-21T19:11:45.328Z,-0.06
2019-01-21T19:14:12.309Z,-0.10
2019-01-21T19:20:05.960Z,-0.12
2019-01-21T19:22:33.928Z,-0.00
2019-01-21T19:25:00.419Z,0.04
2019-01-21T19:27:26.594Z,-0.10
2019-01-21T19:29:53.647Z,-0.00
2019-01-21T19:35:44.235Z,0.03
2019-01-21T19:41:22.322Z,-0.12
2019-01-21T19:43:48.759Z,-0.14
2019-01-21T19:46:15.582Z,-0.08
2019-01-21T19:48:42.024Z,-0.20
2019-01-21T19:51:08.462Z,-0.25
2019-01-21T19:53:34.819Z,-0.32
2019-01-21T19:56:01.139Z,-0.21
2019-01-21T20:01:39.017Z,-0.14
2019-01-21T20:04:05.218Z,-0.20
2019-01-21T20:06:31.542Z,-0.10
2019-01-21T20:08:58.018Z,-0.06
2019-01-21T20:11:24.680Z,-0.16
2019-01-21T20:13:51.042Z,-0.21
2019-01-21T20:16:17.817Z,-0.09
2019-01-21T20:21:55.039Z,-0.22
2019-01-21T20:24:21.496Z,-0.20
2019-01-21T20:26:47.765Z,-0.19
2019-01-21T20:32:37.413Z,-0.14
2019-01-21T20:35:05.556Z,-0.16
2019-01-21T20:37:32.138Z,-0.07
2019-01-21T20:39:58.637Z,-0.14
2019-01-21T20:42:25.041Z,-0.21
2019-01-21T20:44:51.524Z,-0.19
2019-01-21T20:47:17.729Z,-0.29
2019-01-21T20:49:44.114Z,-0.23
2019-01-21T20:52:14.202Z,-0.17
2019-01-21T20:54:38.762Z,-0.16
2019-01-21T20:57:05.307Z,-0.23
2019-01-21T20:59:31.908Z,-0.15
2019-01-21T21:01:58.444Z,-0.08
2019-01-21T21:04:25.198Z,-0.16
2019-01-21T21:06:51.895Z,-0.13
2019-01-21T21:09:18.570Z,-0.02
2019-01-21T21:11:45.148Z,0.02
2019-01-21T21:14:11.745Z,0.04
2019-01-21T21:16:38.343Z,0.05
2019-01-21T21:19:04.776Z,-0.10
2019-01-21T21:21:31.588Z,-0.15
2019-01-21T21:23:58.680Z,-0.07
2019-01-21T21:26:25.284Z,-0.03
2019-01-21T21:28:52.314Z,0.12
2019-01-21T21:34:54.806Z,0.03
2019-01-21T21:37:21.524Z,0.06
2019-01-21T21:39:48.179Z,0.07
2019-01-21T21:42:14.914Z,0.48
2019-01-21T21:44:41.415Z,0.29
2019-01-21T21:47:07.780Z,0.17
2019-01-21T21:49:34.299Z,0.18
2019-01-21T21:52:00.938Z,0.14
2019-01-21T21:54:27.272Z,0.06
2019-01-21T21:56:54.111Z,0.02
2019-01-21T21:59:20.523Z,0.10
2019-01-21T22:01:47.097Z,0.06
2019-01-21T22:04:13.599Z,0.10
2019-01-21T22:06:40.348Z,0.02
2019-01-21T22:09:06.978Z,0.03
2019-01-21T22:11:33.288Z,-0.06
2019-01-21T22:13:59.731Z,-0.02
2019-01-21T22:16:26.585Z,-0.12
2019-01-21T22:18:53.573Z,0.08
2019-01-21T22:21:19.983Z,-0.07
2019-01-21T22:23:46.415Z,0.03
2019-01-21T22:26:13.272Z,-0.03
2019-01-21T22:28:39.905Z,-0.02
2019-01-21T22:31:06.431Z,0.17
2019-01-21T22:33:32.856Z,-0.00
2019-01-21T22:35:59.274Z,0.15
2019-01-21T22:38:25.626Z,0.25
2019-01-21T22:40:52.016Z,0.17
2019-01-21T22:43:18.307Z,0.23
2019-01-21T22:45:44.654Z,0.22
2019-01-21T22:51:34.631Z,-0.05
2019-01-21T22:54:01.389Z,0.03
2019-01-21T22:56:27.720Z,0.01
2019-01-21T22:58:54.172Z,-0.00
2019-01-21T23:01:21.295Z,0.01
2019-01-21T23:03:48.038Z,0.01
2019-01-21T23:06:14.963Z,-0.01
2019-01-21T23:08:41.186Z,-0.00
2019-01-21T23:11:07.649Z,-0.11
2019-01-21T23:13:33.878Z,0.01
2019-01-21T23:16:00.287Z,0.02
2019-01-21T23:18:26.628Z,-0.13
2019-01-21T23:20:52.924Z,-0.13
2019-01-21T23:23:19.288Z,-0.14
2019-01-21T23:25:46.044Z,-0.10
2019-01-21T23:28:12.718Z,-0.13
2019-01-21T23:30:39.395Z,-0.09
2019-01-21T23:33:05.756Z,-0.05
2019-01-21T23:35:32.507Z,-0.01
2019-01-21T23:37:59.053Z,-0.12
2019-01-21T23:40:25.646Z,-0.07
2019-01-21T23:46:15.536Z,0.09
2019-01-21T23:48:41.876Z,0.03
2019-01-21T23:51:08.119Z,0.02
2019-01-21T23:53:34.618Z,0.10
2019-01-21T23:56:01.360Z,0.05
2019-01-21T23:58:27.864Z,0.02
